createdAt,value
2023-02-14T00:00:48.778Z,16.00
2023-02-14T00:01:49.796Z,15.50
2023-02-14T00:02:48.756Z,16.50
2023-02-14T00:03:48.720Z,16.90
2023-02-14T00:06:12.632Z,15.90
2023-02-14T00:07:08.717Z,15.80
2023-02-14T00:08:08.695Z,16.80
2023-02-14T00:09:08.729Z,15.80
2023-02-14T00:10:08.739Z,15.30
2023-02-14T00:11:08.671Z,16.30
2023-02-14T00:12:08.688Z,16.00
2023-02-14T00:13:08.668Z,16.10
2023-02-14T00:14:08.655Z,14.40
2023-02-14T00:15:08.649Z,16.20
2023-02-14T00:16:08.662Z,16.20
2023-02-14T00:17:08.601Z,16.70
2023-02-14T00:18:08.610Z,14.80
2023-02-14T00:19:08.567Z,14.50
2023-02-14T00:20:08.553Z,15.20
2023-02-14T00:21:08.568Z,14.70
2023-02-14T00:22:08.523Z,15.20
2023-02-14T00:40:07.961Z,13.90
2023-02-14T00:41:08.846Z,13.70
2023-02-14T00:42:08.817Z,13.90
2023-02-14T00:43:08.804Z,13.50
2023-02-14T00:44:31.904Z,12.90
2023-02-14T00:45:08.777Z,13.30
2023-02-14T00:46:30.911Z,13.00
2023-02-14T00:47:08.762Z,13.60
2023-02-14T00:48:08.736Z,12.80
2023-02-14T00:49:08.754Z,12.70
2023-02-14T00:50:08.715Z,13.50
2023-02-14T00:51:08.702Z,12.40
2023-02-14T00:52:29.765Z,12.80
2023-02-14T00:53:08.675Z,13.10
2023-02-14T00:54:08.674Z,12.50
2023-02-14T00:55:09.925Z,12.30
2023-02-14T00:56:08.661Z,13.00
2023-02-14T00:57:08.611Z,13.60
2023-02-14T01:01:07.674Z,12.30
2023-02-14T01:03:32.189Z,13.10
2023-02-14T01:04:33.176Z,13.20
2023-02-14T01:05:33.201Z,12.20
2023-02-14T01:06:35.294Z,11.60
2023-02-14T01:07:33.194Z,12.70
2023-02-14T01:08:55.174Z,12.70
2023-02-14T01:09:33.104Z,12.00
2023-02-14T01:10:35.289Z,12.10
2023-02-14T01:11:33.082Z,12.00
2023-02-14T01:12:33.065Z,12.50
2023-02-14T01:13:33.052Z,13.20
2023-02-14T01:14:33.042Z,12.70
2023-02-14T01:15:33.042Z,12.80
2023-02-14T01:16:33.071Z,13.10
2023-02-14T01:17:32.990Z,13.10
2023-02-14T01:18:32.984Z,12.60
2023-02-14T01:19:32.977Z,12.90
2023-02-14T01:20:32.961Z,12.80
2023-02-14T01:21:32.951Z,12.00
2023-02-14T01:22:32.930Z,14.10
2023-02-14T01:23:32.934Z,13.50
2023-02-14T01:24:32.899Z,12.90
2023-02-14T01:25:32.899Z,14.00
2023-02-14T01:26:32.869Z,13.20
2023-02-14T01:27:32.916Z,13.60
2023-02-14T01:28:32.848Z,13.60
2023-02-14T01:29:32.835Z,13.30
2023-02-14T01:30:32.819Z,14.10
2023-02-14T01:31:32.941Z,13.90
2023-02-14T01:32:32.795Z,13.40
2023-02-14T01:33:32.878Z,13.30
2023-02-14T01:34:32.764Z,14.10
2023-02-14T01:35:32.773Z,14.50
2023-02-14T01:36:32.777Z,14.60
2023-02-14T01:37:32.737Z,14.60
2023-02-14T01:38:32.757Z,14.80
2023-02-14T01:39:32.716Z,14.30
2023-02-14T01:40:32.702Z,13.30
2023-02-14T01:41:32.709Z,13.90
2023-02-14T01:42:32.707Z,14.60
2023-02-14T01:43:32.653Z,15.20
2023-02-14T01:44:32.629Z,14.90
2023-02-14T01:45:32.689Z,14.40
2023-02-14T01:46:32.610Z,15.40
2023-02-14T01:47:32.604Z,15.30
2023-02-14T01:48:32.635Z,15.00
2023-02-14T01:49:32.604Z,15.40
2023-02-14T01:50:32.599Z,15.30
2023-02-14T01:51:32.549Z,15.20
2023-02-14T01:52:32.557Z,16.10
2023-02-14T01:53:32.553Z,14.40
2023-02-14T01:54:32.502Z,14.90
2023-02-14T01:55:32.524Z,14.10
2023-02-14T01:56:32.492Z,14.40
2023-02-14T01:57:32.460Z,14.00
2023-02-14T01:58:32.469Z,14.90
2023-02-14T01:59:32.471Z,14.30
2023-02-14T02:00:32.420Z,14.70
2023-02-14T02:01:32.510Z,14.10
2023-02-14T02:02:32.466Z,14.60
2023-02-14T02:03:32.397Z,14.20
2023-02-14T02:04:32.426Z,14.80
2023-02-14T02:05:32.410Z,15.90
2023-02-14T02:06:32.365Z,15.40
2023-02-14T02:07:32.345Z,15.00
2023-02-14T02:08:32.312Z,15.80
2023-02-14T02:09:32.317Z,14.70
2023-02-14T02:10:32.322Z,15.50
2023-02-14T02:11:32.275Z,15.00
2023-02-14T02:12:32.316Z,13.70
2023-02-14T02:13:32.253Z,14.10
2023-02-14T02:14:32.233Z,15.60
2023-02-14T02:15:32.232Z,15.60
2023-02-14T02:16:32.243Z,16.70
2023-02-14T02:17:32.195Z,16.00
2023-02-14T02:18:32.222Z,16.20
2023-02-14T02:19:32.161Z,16.20
2023-02-14T02:20:32.182Z,14.70
2023-02-14T02:21:32.143Z,16.10
2023-02-14T02:22:32.144Z,16.00
2023-02-14T02:23:32.175Z,15.40
2023-02-14T02:24:32.092Z,16.10
2023-02-14T02:25:32.097Z,15.50
2023-02-14T02:26:32.090Z,15.90
2023-02-14T02:27:32.070Z,16.20
2023-02-14T02:28:32.044Z,15.40
2023-02-14T02:29:32.036Z,15.80
2023-02-14T02:30:32.283Z,16.00
2023-02-14T02:31:32.219Z,16.60
2023-02-14T02:32:32.002Z,16.40
2023-02-14T02:33:31.989Z,15.90
2023-02-14T02:34:31.956Z,16.30
2023-02-14T02:35:31.967Z,15.90
2023-02-14T02:36:31.962Z,15.60
2023-02-14T02:37:31.949Z,15.60
2023-02-14T02:38:31.904Z,17.40
2023-02-14T02:39:31.891Z,16.20
2023-02-14T02:40:31.871Z,16.70
2023-02-14T02:41:31.875Z,16.60
2023-02-14T02:42:31.866Z,16.40
2023-02-14T02:43:31.837Z,16.50
2023-02-14T02:44:31.855Z,17.40
2023-02-14T02:45:31.820Z,17.20
2023-02-14T02:46:31.800Z,15.60
2023-02-14T02:47:31.797Z,16.70
2023-02-14T02:48:31.776Z,17.30
2023-02-14T02:49:31.757Z,16.10
2023-02-14T02:50:31.743Z,17.20
2023-02-14T02:51:31.753Z,16.60
2023-02-14T02:52:31.714Z,16.00
2023-02-14T02:53:31.724Z,16.60
2023-02-14T02:54:31.675Z,17.20
2023-02-14T02:55:31.675Z,17.10
2023-02-14T02:56:31.662Z,16.20
2023-02-14T02:57:31.643Z,16.50
2023-02-14T02:58:31.625Z,15.80
2023-02-14T02:59:31.618Z,16.90
2023-02-14T03:00:31.604Z,16.60
2023-02-14T03:01:31.670Z,17.50
2023-02-14T03:02:31.586Z,15.30
2023-02-14T03:03:31.580Z,16.20
2023-02-14T03:04:31.617Z,16.60
2023-02-14T03:05:31.553Z,15.80
2023-02-14T03:06:31.522Z,16.30
2023-02-14T03:07:31.511Z,16.50
2023-02-14T03:08:31.496Z,16.50
2023-02-14T03:09:31.530Z,16.80
2023-02-14T03:10:31.473Z,15.50
2023-02-14T03:11:31.478Z,15.60
2023-02-14T03:12:31.448Z,15.90
2023-02-14T03:13:31.478Z,16.30
2023-02-14T03:14:31.416Z,15.70
2023-02-14T03:15:31.495Z,15.30
2023-02-14T03:16:31.418Z,15.50
2023-02-14T03:17:31.409Z,15.60
2023-02-14T03:18:31.354Z,15.90
2023-02-14T03:19:31.384Z,16.10
2023-02-14T03:20:31.329Z,15.30
2023-02-14T03:21:31.335Z,16.50
2023-02-14T03:22:31.294Z,15.40
2023-02-14T03:23:31.295Z,15.90
2023-02-14T03:24:31.333Z,16.10
2023-02-14T03:25:31.281Z,15.90
2023-02-14T03:26:31.262Z,15.80
2023-02-14T03:27:31.247Z,15.20
2023-02-14T03:28:31.229Z,15.70
2023-02-14T03:29:31.209Z,16.30
2023-02-14T03:30:31.295Z,15.40
2023-02-14T03:31:31.365Z,16.20
2023-02-14T03:32:31.256Z,15.40
2023-02-14T03:33:32.318Z,15.90
2023-02-14T03:34:31.186Z,16.70
2023-02-14T03:35:31.133Z,16.50
2023-02-14T03:36:31.141Z,15.70
2023-02-14T03:37:31.119Z,15.90
2023-02-14T03:38:53.231Z,16.00
2023-02-14T03:39:31.090Z,16.30
2023-02-14T03:40:31.068Z,16.30
2023-02-14T03:41:31.097Z,16.80
2023-02-14T05:00:48.732Z,18.10
2023-02-14T05:01:49.694Z,18.40
2023-02-14T05:02:49.636Z,19.20
2023-02-14T05:03:49.624Z,19.40
2023-02-14T05:04:49.928Z,19.20
2023-02-14T05:05:49.598Z,19.40
2023-02-14T05:06:49.617Z,19.00
2023-02-14T05:07:49.595Z,18.40
2023-02-14T05:08:49.634Z,19.90
2023-02-14T05:09:49.558Z,19.10
2023-02-14T05:10:49.529Z,19.60
2023-02-14T05:11:49.552Z,19.80
2023-02-14T05:12:49.515Z,18.30
2023-02-14T05:13:49.486Z,18.00
2023-02-14T05:14:49.501Z,19.80
2023-02-14T05:15:49.472Z,20.40
2023-02-14T05:16:49.463Z,19.00
2023-02-14T05:17:49.511Z,19.60
2023-02-14T05:18:49.433Z,19.80
2023-02-14T05:19:49.411Z,18.90
2023-02-14T05:20:49.407Z,19.00
2023-02-14T05:21:49.432Z,19.00
2023-02-14T05:22:49.369Z,19.00
2023-02-14T05:23:49.366Z,20.00
2023-02-14T05:24:49.350Z,18.90
2023-02-14T05:25:49.326Z,18.90
2023-02-14T05:26:49.306Z,19.80
2023-02-14T05:27:49.336Z,18.60
2023-02-14T05:28:49.290Z,19.50
2023-02-14T05:29:49.402Z,20.10
2023-02-14T05:30:49.317Z,20.10
2023-02-14T05:31:49.257Z,18.50
2023-02-14T05:32:49.232Z,19.20
2023-02-14T05:33:49.258Z,19.60
2023-02-14T05:34:49.208Z,19.20
2023-02-14T05:35:49.196Z,20.50
2023-02-14T05:36:49.172Z,19.40
2023-02-14T05:37:49.189Z,19.40
2023-02-14T05:38:49.197Z,19.80
2023-02-14T05:39:49.139Z,19.60
2023-02-14T05:40:49.124Z,19.00
2023-02-14T05:41:49.111Z,20.70
2023-02-14T05:42:49.106Z,20.50
2023-02-14T05:43:49.089Z,20.00
2023-02-14T05:44:49.099Z,20.90
2023-02-14T05:45:49.111Z,19.50
2023-02-14T05:46:49.040Z,19.80
2023-02-14T05:47:49.076Z,20.20
2023-02-14T05:48:49.009Z,19.50
2023-02-14T05:49:49.036Z,19.00
2023-02-14T05:50:48.980Z,19.50
2023-02-14T05:51:48.973Z,19.30
2023-02-14T05:52:48.969Z,20.10
2023-02-14T05:53:48.948Z,19.50
2023-02-14T05:54:48.939Z,19.50
2023-02-14T05:55:48.928Z,19.70
2023-02-14T05:56:48.902Z,19.20
2023-02-14T05:57:48.907Z,19.20
2023-02-14T05:58:48.862Z,20.10
2023-02-14T05:59:48.870Z,20.80
2023-02-14T06:00:48.843Z,21.10
2023-02-14T06:01:48.895Z,21.10
2023-02-14T06:02:48.860Z,20.80
2023-02-14T06:03:48.883Z,20.70
2023-02-14T06:04:48.903Z,19.50
2023-02-14T06:05:48.786Z,20.00
2023-02-14T06:06:48.777Z,20.60
2023-02-14T06:07:48.778Z,20.30
2023-02-14T06:08:48.741Z,20.30
2023-02-14T06:09:48.752Z,20.30
2023-02-14T06:10:48.716Z,20.50
2023-02-14T06:11:48.705Z,20.80
2023-02-14T06:12:48.709Z,20.20
2023-02-14T06:13:48.726Z,20.50
2023-02-14T06:14:48.703Z,20.40
2023-02-14T06:15:48.649Z,22.10
2023-02-14T06:16:48.718Z,21.70
2023-02-14T06:17:48.652Z,22.20
2023-02-14T06:18:48.605Z,22.00
2023-02-14T06:19:48.675Z,21.70
2023-02-14T06:20:48.579Z,21.30
2023-02-14T06:21:48.575Z,22.20
2023-02-14T06:22:48.569Z,21.70
2023-02-14T06:23:48.554Z,22.30
2023-02-14T06:24:48.535Z,22.20
2023-02-14T06:25:48.508Z,21.90
2023-02-14T06:26:48.493Z,22.30
2023-02-14T06:27:49.431Z,22.90
2023-02-14T06:29:11.570Z,22.90
2023-02-14T06:29:48.505Z,22.80
2023-02-14T06:30:48.568Z,22.50
2023-02-14T06:31:48.624Z,21.00
2023-02-14T06:32:48.458Z,22.20
2023-02-14T06:33:48.408Z,20.90
2023-02-14T06:34:48.428Z,22.00
2023-02-14T06:35:48.378Z,22.40
2023-02-14T06:36:48.367Z,23.70
2023-02-14T06:37:48.380Z,23.10
2023-02-14T06:38:48.338Z,22.60
2023-02-14T06:39:48.335Z,23.00
2023-02-14T06:40:48.321Z,22.80
2023-02-14T06:41:48.308Z,21.80
2023-02-14T06:42:48.286Z,21.80
2023-02-14T06:43:48.282Z,22.00
2023-02-14T06:44:48.305Z,22.00
2023-02-14T06:45:48.325Z,23.40
2023-02-14T06:46:48.228Z,23.70
2023-02-14T06:47:48.393Z,24.50
2023-02-14T06:48:48.216Z,24.00
2023-02-14T06:49:48.225Z,26.40
2023-02-14T06:50:48.177Z,25.40
2023-02-14T06:51:48.221Z,24.90
2023-02-14T06:52:48.154Z,23.90
2023-02-14T06:53:48.143Z,23.50
2023-02-14T06:54:48.128Z,24.50
2023-02-14T06:55:48.105Z,24.80
2023-02-14T06:56:48.087Z,24.20
2023-02-14T06:57:48.081Z,25.20
2023-02-14T06:58:48.117Z,25.50
2023-02-14T06:59:48.083Z,24.70
2023-02-14T07:00:48.031Z,23.80
2023-02-14T07:01:48.075Z,24.00
2023-02-14T07:02:48.087Z,25.70
2023-02-14T07:03:48.002Z,25.60
2023-02-14T07:04:48.007Z,25.70
2023-02-14T07:05:47.973Z,25.50
2023-02-14T07:06:47.968Z,25.20
2023-02-14T07:07:47.995Z,26.50
2023-02-14T07:08:47.958Z,25.00
2023-02-14T07:09:47.940Z,24.90
2023-02-14T07:10:47.915Z,24.90
2023-02-14T07:11:47.961Z,25.70
2023-02-14T07:12:47.870Z,25.10
2023-02-14T07:13:49.457Z,24.40
2023-02-14T07:14:47.851Z,24.10
2023-02-14T07:15:47.954Z,24.60
2023-02-14T07:16:47.820Z,24.00
2023-02-14T07:17:47.857Z,24.60
2023-02-14T07:18:47.816Z,25.60
2023-02-14T07:19:47.804Z,25.20
2023-02-14T07:20:47.776Z,24.50
2023-02-14T07:21:47.767Z,23.80
2023-02-14T07:22:47.757Z,23.60
2023-02-14T07:23:47.775Z,24.40
2023-02-14T07:24:47.831Z,25.60
2023-02-14T07:25:47.712Z,24.90
2023-02-14T07:26:47.712Z,24.20
2023-02-14T07:27:47.672Z,25.50
2023-02-14T07:28:47.674Z,26.00
2023-02-14T07:29:47.805Z,25.50
2023-02-14T07:30:47.947Z,25.50
2023-02-14T07:31:47.677Z,25.70
2023-02-14T07:32:47.658Z,26.30
2023-02-14T07:33:47.614Z,26.70
2023-02-14T07:34:47.595Z,25.80
2023-02-14T07:35:47.572Z,26.00
2023-02-14T07:36:47.543Z,25.40
2023-02-14T07:37:47.598Z,26.40
2023-02-14T07:38:47.550Z,26.30
2023-02-14T07:39:47.535Z,26.20
2023-02-14T07:40:47.490Z,28.00
2023-02-14T07:41:47.508Z,29.10
2023-02-14T07:42:47.473Z,30.20
2023-02-14T07:43:47.464Z,33.70
2023-02-14T07:44:47.493Z,30.70
2023-02-14T07:45:47.501Z,30.90
2023-02-14T07:46:47.427Z,31.50
2023-02-14T07:47:47.487Z,30.50
2023-02-14T07:48:47.477Z,29.60
2023-02-14T07:49:47.373Z,28.40
2023-02-14T07:50:47.552Z,28.20
2023-02-14T07:51:47.418Z,26.80
2023-02-14T07:52:47.339Z,27.00
2023-02-14T07:53:47.369Z,26.70
2023-02-14T07:54:47.313Z,25.00
2023-02-14T07:55:47.306Z,24.30
2023-02-14T07:56:47.280Z,25.70
2023-02-14T07:57:47.311Z,24.70
2023-02-14T07:58:47.282Z,23.90
2023-02-14T07:59:47.243Z,23.40
2023-02-14T08:00:47.223Z,23.00
2023-02-14T08:01:47.291Z,23.80
2023-02-14T08:02:47.231Z,22.80
2023-02-14T08:03:47.211Z,24.40
2023-02-14T08:04:47.241Z,24.60
2023-02-14T08:05:47.156Z,22.70
2023-02-14T08:06:47.198Z,22.50
2023-02-14T08:07:47.178Z,23.80
2023-02-14T08:08:47.127Z,22.50
2023-02-14T08:09:47.106Z,22.40
2023-02-14T08:21:09.997Z,19.20
2023-02-14T08:22:10.968Z,19.30
2023-02-14T08:23:10.955Z,19.10
2023-02-14T08:24:10.993Z,18.90
2023-02-14T08:25:10.998Z,19.40
2023-02-14T08:26:11.037Z,18.10
2023-02-14T08:27:10.908Z,18.20
2023-02-14T08:28:10.943Z,18.40
2023-02-14T08:29:16.965Z,18.40
2023-02-14T08:30:10.977Z,17.20
2023-02-14T08:31:10.884Z,18.80
2023-02-14T08:32:11.000Z,18.40
2023-02-14T08:33:10.843Z,18.10
2023-02-14T08:34:11.978Z,18.00
2023-02-14T08:35:10.889Z,17.00
2023-02-14T08:36:10.858Z,17.60
2023-02-14T08:37:34.136Z,18.50
2023-02-14T08:38:10.793Z,17.70
2023-02-14T08:39:10.789Z,17.90
2023-02-14T08:51:51.296Z,15.70
2023-02-14T08:52:51.659Z,15.20
2023-02-14T08:53:51.667Z,15.40
2023-02-14T08:54:51.636Z,15.80
2023-02-14T08:55:51.848Z,15.50
2023-02-14T08:56:51.657Z,14.90
2023-02-14T08:57:51.621Z,14.80
2023-02-14T08:58:51.630Z,14.70
2023-02-14T08:59:51.655Z,14.70
2023-02-14T09:00:51.701Z,15.40
2023-02-14T09:01:51.599Z,15.60
2023-02-14T09:02:51.572Z,15.60
2023-02-14T09:03:51.748Z,16.60
2023-02-14T09:04:51.508Z,15.90
2023-02-14T09:05:51.485Z,16.20
2023-02-14T09:06:51.477Z,16.60
2023-02-14T09:07:51.498Z,16.20
2023-02-14T09:08:51.585Z,15.60
2023-02-14T09:09:51.455Z,15.90
2023-02-14T09:10:51.485Z,15.90
2023-02-14T09:11:51.433Z,16.30
2023-02-14T09:12:51.414Z,16.70
2023-02-14T09:13:51.522Z,17.30
2023-02-14T09:14:51.508Z,17.30
2023-02-14T09:15:51.351Z,17.10
2023-02-14T09:16:51.443Z,17.80
2023-02-14T09:17:51.473Z,17.50
2023-02-14T09:18:51.359Z,16.80
2023-02-14T09:19:51.316Z,15.60
2023-02-14T10:02:27.943Z,13.30
2023-02-14T10:03:28.880Z,13.20
2023-02-14T10:26:12.914Z,9.80
2023-02-14T10:27:13.819Z,8.90
2023-02-14T10:28:16.445Z,9.30
2023-02-14T10:29:13.827Z,9.60
2023-02-14T10:30:13.914Z,9.00
2023-02-14T10:31:13.928Z,9.60
2023-02-14T10:32:13.848Z,9.40
2023-02-14T10:33:13.770Z,9.70
2023-02-14T10:34:13.730Z,10.40
2023-02-14T10:35:13.854Z,10.00
2023-02-14T10:36:13.776Z,9.60
2023-02-14T10:37:13.688Z,9.90
2023-02-14T10:38:13.686Z,10.30
2023-02-14T10:39:13.689Z,8.90
2023-02-14T10:40:15.025Z,9.90
2023-02-14T10:41:13.664Z,9.50
2023-02-14T10:42:13.624Z,9.10
2023-02-14T10:43:13.623Z,8.70
2023-02-14T10:44:13.668Z,9.20
2023-02-14T10:45:13.606Z,8.70
2023-02-14T10:46:13.791Z,9.60
2023-02-14T10:47:14.320Z,9.10
2023-02-14T10:48:13.556Z,8.90
2023-02-14T10:49:13.604Z,8.20
2023-02-14T10:50:13.545Z,7.90
2023-02-14T10:51:13.491Z,8.10
2023-02-14T10:52:13.556Z,7.50
2023-02-14T10:53:13.508Z,7.80
2023-02-14T10:54:13.454Z,7.70
2023-02-14T10:55:20.268Z,7.70
2023-02-14T10:56:13.494Z,7.80
2023-02-14T10:57:13.421Z,7.40
2023-02-14T10:58:13.453Z,7.70
2023-02-14T10:59:13.401Z,7.80
2023-02-14T11:00:13.376Z,7.70
2023-02-14T11:01:13.526Z,7.60
2023-02-14T11:02:13.357Z,7.40
2023-02-14T11:03:13.390Z,7.40
2023-02-14T11:04:13.320Z,7.30
2023-02-14T11:05:13.311Z,7.60
2023-02-14T11:06:13.346Z,7.40
2023-02-14T11:07:13.302Z,7.70
2023-02-14T11:08:13.322Z,7.10
2023-02-14T11:09:13.286Z,7.20
2023-02-14T11:10:13.295Z,7.10
2023-02-14T11:11:13.261Z,7.40
2023-02-14T11:12:13.223Z,7.80
2023-02-14T11:13:13.197Z,7.40
2023-02-14T11:14:13.205Z,7.70
2023-02-14T11:15:13.232Z,7.00
2023-02-14T11:16:13.198Z,7.10
2023-02-14T11:17:13.156Z,7.20
2023-02-14T11:18:13.132Z,6.40
2023-02-14T11:19:13.133Z,6.60
2023-02-14T11:20:13.130Z,6.70
2023-02-14T11:21:13.163Z,7.20
2023-02-14T11:22:13.121Z,7.40
2023-02-14T11:23:13.161Z,7.00
2023-02-14T11:24:13.091Z,6.50
2023-02-14T11:25:13.117Z,8.10
2023-02-14T11:26:13.124Z,7.40
2023-02-14T11:27:13.039Z,7.30
2023-02-14T11:28:13.002Z,7.90
2023-02-14T11:29:13.020Z,6.60
2023-02-14T11:30:13.069Z,7.20
2023-02-14T11:31:13.092Z,7.90
2023-02-14T11:32:12.970Z,7.00
2023-02-14T11:33:12.961Z,7.10
2023-02-14T11:34:13.012Z,7.20
2023-02-14T11:35:12.887Z,7.10
2023-02-14T11:36:12.952Z,7.90
2023-02-14T11:37:12.862Z,6.60
2023-02-14T11:38:12.958Z,6.70
2023-02-14T11:39:12.848Z,7.20
2023-02-14T11:40:12.831Z,7.70
2023-02-14T11:41:12.862Z,6.80
2023-02-14T11:42:12.882Z,6.80
2023-02-14T11:43:15.052Z,7.40
2023-02-14T11:44:12.790Z,7.30
2023-02-14T11:45:12.849Z,7.10
2023-02-14T11:46:12.818Z,7.50
2023-02-14T11:47:12.723Z,7.10
2023-02-14T11:48:12.753Z,8.00
2023-02-14T11:49:12.757Z,7.50
2023-02-14T11:50:12.759Z,7.20
2023-02-14T11:51:12.687Z,7.10
2023-02-14T11:52:12.659Z,7.20
2023-02-14T11:53:12.690Z,7.80
2023-02-14T11:54:12.659Z,7.80
2023-02-14T11:55:12.616Z,8.10
2023-02-14T11:56:12.628Z,7.30
2023-02-14T11:57:12.661Z,7.70
2023-02-14T11:58:12.629Z,7.40
2023-02-14T11:59:12.618Z,7.70
2023-02-14T12:00:12.643Z,7.70
2023-02-14T12:01:12.664Z,7.80
2023-02-14T12:02:12.680Z,7.70
2023-02-14T12:03:12.515Z,8.10
2023-02-14T12:04:12.510Z,7.90
2023-02-14T12:05:12.538Z,7.70
2023-02-14T12:06:12.474Z,7.00
2023-02-14T12:07:12.473Z,7.30
2023-02-14T12:08:12.461Z,7.70
2023-02-14T12:09:12.491Z,7.60
2023-02-14T12:10:12.477Z,7.40
2023-02-14T12:11:12.413Z,8.20
2023-02-14T12:12:12.404Z,8.00
2023-02-14T12:13:12.387Z,7.30
2023-02-14T12:14:12.408Z,7.80
2023-02-14T12:15:12.353Z,7.50
2023-02-14T12:16:12.445Z,7.60
2023-02-14T12:17:12.334Z,7.50
2023-02-14T12:18:12.319Z,8.20
2023-02-14T12:19:12.305Z,7.40
2023-02-14T12:20:12.322Z,7.70
2023-02-14T12:21:12.285Z,7.50
2023-02-14T12:22:12.272Z,7.70
2023-02-14T12:23:12.253Z,7.20
2023-02-14T12:24:12.263Z,7.90
2023-02-14T12:25:12.228Z,7.70
2023-02-14T12:26:12.240Z,7.60
2023-02-14T12:27:12.214Z,7.80
2023-02-14T12:28:12.176Z,7.60
2023-02-14T12:29:12.154Z,7.30
2023-02-14T12:30:12.249Z,7.10
2023-02-14T12:31:12.234Z,7.30
2023-02-14T12:32:12.265Z,7.50
2023-02-14T12:33:12.212Z,7.80
2023-02-14T12:34:12.185Z,7.40
2023-02-14T12:35:12.067Z,7.30
2023-02-14T12:36:12.068Z,7.60
2023-02-14T12:37:12.168Z,7.80
2023-02-14T12:38:12.175Z,7.50
2023-02-14T12:39:12.085Z,7.10
2023-02-14T12:40:12.057Z,7.40
2023-02-14T12:41:12.007Z,7.30
2023-02-14T12:42:12.013Z,7.70
2023-02-14T12:43:12.053Z,6.60
2023-02-14T12:44:11.985Z,7.80
2023-02-14T12:45:11.979Z,7.30
2023-02-14T12:46:11.992Z,7.50
2023-02-14T12:47:12.012Z,7.30
2023-02-14T12:48:13.321Z,6.90
2023-02-14T12:49:12.024Z,7.30
2023-02-14T12:50:11.876Z,7.40
2023-02-14T12:51:11.886Z,7.40
2023-02-14T12:52:11.869Z,8.50
2023-02-14T12:53:11.837Z,7.30
2023-02-14T12:54:11.906Z,7.00
2023-02-14T12:55:11.834Z,7.60
2023-02-14T12:56:11.876Z,6.80
2023-02-14T12:57:11.818Z,8.10
2023-02-14T12:58:11.794Z,7.60
2023-02-14T12:59:12.925Z,7.10
2023-02-14T13:00:11.739Z,7.70
2023-02-14T13:01:12.198Z,7.00
2023-02-14T13:02:11.754Z,7.20
2023-02-14T13:03:11.738Z,6.90
2023-02-14T13:04:11.688Z,7.50
2023-02-14T13:05:11.670Z,7.70
2023-02-14T13:14:56.557Z,7.40
2023-02-14T13:15:57.567Z,7.40
2023-02-14T13:17:20.664Z,8.10
2023-02-14T13:17:57.510Z,7.10
2023-02-14T13:27:36.718Z,7.70
2023-02-14T13:28:16.545Z,7.70
2023-02-14T13:29:16.551Z,7.70
2023-02-14T13:30:16.596Z,8.10
2023-02-14T13:31:16.651Z,8.10
2023-02-14T13:32:16.614Z,7.60
2023-02-14T13:33:16.475Z,7.60
2023-02-14T13:34:16.513Z,8.20
2023-02-14T13:35:16.451Z,7.80
2023-02-14T13:36:16.479Z,7.30
2023-02-14T13:37:16.437Z,7.30
2023-02-14T13:38:16.419Z,7.30
2023-02-14T13:39:16.399Z,7.50
2023-02-14T13:40:16.388Z,8.20
2023-02-14T13:41:16.375Z,8.00
2023-02-14T13:42:16.363Z,7.00
2023-02-14T13:43:16.338Z,7.60
2023-02-14T13:44:16.356Z,7.50
2023-02-14T13:45:16.357Z,8.20
2023-02-14T13:46:16.354Z,8.10
2023-02-14T13:47:16.331Z,7.80
2023-02-14T13:48:16.307Z,8.40
2023-02-14T13:49:16.259Z,8.00
2023-02-14T13:50:37.367Z,7.60
2023-02-14T13:51:16.264Z,7.90
2023-02-14T13:52:16.204Z,7.70
2023-02-14T13:53:16.232Z,7.70
2023-02-14T13:54:17.995Z,7.70
2023-02-14T13:55:16.193Z,7.70
2023-02-14T13:56:16.225Z,7.90
2023-02-14T13:57:16.224Z,7.90
2023-02-14T13:58:19.586Z,7.80
2023-02-14T13:59:16.134Z,8.00
2023-02-14T14:00:16.109Z,7.90
2023-02-14T14:01:16.162Z,8.00
2023-02-14T14:02:16.068Z,8.10
2023-02-14T14:03:16.100Z,8.30
2023-02-14T14:04:16.077Z,7.60
2023-02-14T14:05:16.038Z,7.50
2023-02-14T14:06:16.069Z,8.00
2023-02-14T14:07:16.104Z,8.20
2023-02-14T14:08:15.989Z,8.00
2023-02-14T14:09:15.988Z,8.20
2023-02-14T14:10:15.964Z,8.30
2023-02-14T14:11:15.938Z,7.90
2023-02-14T14:12:15.964Z,8.00
2023-02-14T14:13:15.916Z,8.20
2023-02-14T14:14:15.945Z,8.00
2023-02-14T14:15:17.018Z,8.00
2023-02-14T14:16:15.908Z,8.80
2023-02-14T14:17:15.860Z,8.80
2023-02-14T14:18:15.937Z,8.50
2023-02-14T14:19:15.838Z,8.70
2023-02-14T14:20:15.854Z,8.00
2023-02-14T14:21:15.810Z,8.60
2023-02-14T14:22:15.804Z,7.50
2023-02-14T14:23:15.796Z,9.00
2023-02-14T14:24:15.772Z,8.30
2023-02-14T14:25:15.751Z,7.90
2023-02-14T14:26:15.755Z,8.90
2023-02-14T14:27:15.773Z,8.70
2023-02-14T14:28:15.735Z,8.40
2023-02-14T14:29:15.702Z,7.90
2023-02-14T14:30:15.715Z,8.30
2023-02-14T14:31:15.793Z,8.60
2023-02-14T14:32:15.698Z,8.40
2023-02-14T14:33:15.667Z,8.00
2023-02-14T14:34:15.692Z,8.70
2023-02-14T14:35:15.640Z,8.30
2023-02-14T14:36:15.661Z,8.40
2023-02-14T14:37:15.591Z,9.00
2023-02-14T14:38:15.633Z,8.40
2023-02-14T14:39:15.560Z,8.70
2023-02-14T14:40:15.570Z,8.70
2023-02-14T14:41:15.543Z,8.30
2023-02-14T14:42:15.557Z,8.30
2023-02-14T14:43:15.550Z,9.10
2023-02-14T14:44:15.511Z,9.20
2023-02-14T14:45:15.474Z,8.40
2023-02-14T14:46:15.490Z,8.70
2023-02-14T14:47:15.447Z,8.90
2023-02-14T14:48:15.491Z,8.40
2023-02-14T14:49:15.503Z,8.90
2023-02-14T14:50:15.424Z,9.30
2023-02-14T14:51:15.411Z,8.40
2023-02-14T14:52:15.393Z,8.50
2023-02-14T14:53:15.368Z,8.30
2023-02-14T14:54:15.389Z,9.30
2023-02-14T14:55:15.343Z,8.50
2023-02-14T14:56:15.360Z,8.60
2023-02-14T14:57:15.317Z,8.40
2023-02-14T14:58:15.344Z,9.30
2023-02-14T14:59:15.328Z,8.90
2023-02-14T15:00:15.286Z,9.00
2023-02-14T15:01:15.336Z,8.50
2023-02-14T15:02:15.256Z,8.80
2023-02-14T15:03:15.249Z,9.70
2023-02-14T15:04:15.321Z,8.90
2023-02-14T15:05:15.232Z,8.50
2023-02-14T15:06:15.208Z,9.30
2023-02-14T15:07:15.186Z,8.90
2023-02-14T15:08:15.196Z,10.00
2023-02-14T15:09:15.190Z,8.60
2023-02-14T15:10:15.176Z,8.10
2023-02-14T15:11:15.127Z,8.40
2023-02-14T15:12:15.128Z,8.80
2023-02-14T15:13:15.115Z,8.40
2023-02-14T15:14:15.107Z,9.10
2023-02-14T15:15:15.086Z,9.40
2023-02-14T15:16:15.106Z,8.90
2023-02-14T15:17:15.115Z,9.80
2023-02-14T15:18:15.044Z,9.40
2023-02-14T15:19:15.079Z,9.10
2023-02-14T15:20:15.020Z,9.80
2023-02-14T15:21:15.012Z,9.10
2023-02-14T15:22:14.994Z,9.40
2023-02-14T15:23:15.049Z,8.60
2023-02-14T15:24:15.124Z,8.40
2023-02-14T15:25:15.117Z,8.90
2023-02-14T15:26:14.981Z,8.60
2023-02-14T15:27:15.121Z,8.10
2023-02-14T15:28:14.932Z,8.10
2023-02-14T15:29:14.930Z,8.50
2023-02-14T15:30:14.929Z,8.90
2023-02-14T15:31:15.556Z,8.60
2023-02-14T15:32:15.019Z,8.90
2023-02-14T15:33:14.841Z,8.70
2023-02-14T15:34:14.844Z,8.80
2023-02-14T15:35:14.835Z,9.20
2023-02-14T15:36:14.804Z,8.90
2023-02-14T15:37:14.780Z,8.40
2023-02-14T15:38:14.786Z,8.60
2023-02-14T15:39:14.774Z,9.10
2023-02-14T15:40:14.743Z,8.90
2023-02-14T15:41:14.726Z,8.70
2023-02-14T15:42:14.713Z,8.50
2023-02-14T15:43:14.723Z,8.50
2023-02-14T15:44:14.695Z,8.40
2023-02-14T15:45:14.685Z,8.70
2023-02-14T15:46:14.708Z,8.30
2023-02-14T15:47:14.665Z,8.30
2023-02-14T15:48:14.643Z,8.40
2023-02-14T15:49:14.629Z,8.80
2023-02-14T15:50:14.642Z,8.80
2023-02-14T15:51:14.617Z,8.60
2023-02-14T15:52:14.612Z,9.60
2023-02-14T15:53:14.584Z,9.30
2023-02-14T15:54:14.574Z,8.60
2023-02-14T15:55:14.554Z,8.80
2023-02-14T15:56:14.587Z,8.60
2023-02-14T15:57:14.536Z,8.50
2023-02-14T15:58:14.555Z,8.70
2023-02-14T15:59:14.479Z,8.90
2023-02-14T16:00:14.478Z,8.80
2023-02-14T16:01:14.474Z,8.70
2023-02-14T16:02:14.613Z,8.60
2023-02-14T16:03:16.119Z,8.80
2023-02-14T16:04:16.226Z,9.00
2023-02-14T16:05:15.821Z,8.60
2023-02-14T16:06:14.385Z,8.90
2023-02-14T16:07:14.953Z,9.10
2023-02-14T16:08:14.378Z,8.70
2023-02-14T16:09:14.571Z,9.10
2023-02-14T16:10:14.369Z,9.30
2023-02-14T16:11:14.301Z,8.60
2023-02-14T16:12:14.287Z,9.10
2023-02-14T16:13:14.274Z,9.70
2023-02-14T16:14:14.312Z,9.30
2023-02-14T16:15:14.324Z,9.50
2023-02-14T16:16:14.362Z,8.90
2023-02-14T16:17:14.233Z,11.50
2023-02-14T16:18:14.243Z,12.70
2023-02-14T16:19:14.304Z,11.80
2023-02-14T16:20:14.200Z,11.10
2023-02-14T16:21:16.413Z,10.60
2023-02-14T16:22:14.159Z,9.90
2023-02-14T16:23:15.421Z,9.20
2023-02-14T16:24:14.139Z,9.70
2023-02-14T16:25:14.222Z,9.20
2023-02-14T16:26:14.126Z,10.00
2023-02-14T16:27:14.158Z,9.60